7MA2 weather

Craig Cove Seaplane Base
East Freetown, Massachusetts, United States

Public forecast

Using degrees Fahrenheit for public forecast. Weather courtesy of forecast.io.

Closest aviation weather report (METAR) to Craig Cove Seaplane Base

Closest report is New Bedford Regional Airport, 6.3 nm (11.6 km) S. Retrieved 2020/08/06 11:53 UTC (33 minutes ago):

KEWB 061153Z 01003KT 10SM CLR 23/16 A3011 RMK AO2 SLP197 T02330161 10233 20178 51016

Closest aviation forecast (TAF) to Craig Cove Seaplane Base

Closest forecast is Cape Cod Coast Guard Air Station, 20.4 nm (37.9 km) ESE. Retrieved 2020/08/06 12:22 UTC (4 minutes ago):

TAF KFMH 061120Z 0612/0712 01005KT P6SM OVC070 FM061600 13006KT P6SM FEW200 FM070200 21004KT P6SM BKN100 FM071100 08003KT P6SM VCSH BKN060